sensor_id;sensor_type;location;lat;lon;timestamp;pressure;altitude;pressure_sealevel;temperature;humidity
37694;BME280;23531;50.122;8.644;2023-03-04T00:01:49;101345.00;;;4.00;66.41
37694;BME280;23531;50.122;8.644;2023-03-04T00:03:50;101344.78;;;4.21;65.70
37694;BME280;23531;50.122;8.644;2023-03-04T00:05:52;101350.91;;;3.84;65.43
37694;BME280;23531;50.122;8.644;2023-03-04T00:07:54;101348.03;;;3.58;66.35
37694;BME280;23531;50.122;8.644;2023-03-04T00:09:55;101340.91;;;3.40;67.33
37694;BME280;23531;50.122;8.644;2023-03-04T00:11:56;101344.56;;;3.19;67.94
37694;BME280;23531;50.122;8.644;2023-03-04T00:13:58;101343.72;;;3.28;68.49
37694;BME280;23531;50.122;8.644;2023-03-04T00:15:59;101341.50;;;3.34;68.35
37694;BME280;23531;50.122;8.644;2023-03-04T00:18:00;101342.47;;;3.33;67.87
37694;BME280;23531;50.122;8.644;2023-03-04T00:20:01;101347.78;;;3.13;68.99
37694;BME280;23531;50.122;8.644;2023-03-04T00:22:04;101351.00;;;3.17;69.33
37694;BME280;23531;50.122;8.644;2023-03-04T00:24:06;101344.56;;;3.00;70.18
37694;BME280;23531;50.122;8.644;2023-03-04T00:26:07;101350.16;;;3.07;69.86
37694;BME280;23531;50.122;8.644;2023-03-04T00:28:09;101344.84;;;3.07;69.26
37694;BME280;23531;50.122;8.644;2023-03-04T00:30:10;101347.94;;;3.21;69.73
37694;BME280;23531;50.122;8.644;2023-03-04T00:32:12;101349.47;;;3.24;69.87
37694;BME280;23531;50.122;8.644;2023-03-04T00:34:15;101345.97;;;3.23;69.91
37694;BME280;23531;50.122;8.644;2023-03-04T00:36:16;101342.91;;;3.38;68.84
37694;BME280;23531;50.122;8.644;2023-03-04T00:38:19;101352.81;;;3.16;69.42
37694;BME280;23531;50.122;8.644;2023-03-04T00:40:20;101343.75;;;3.38;69.74
37694;BME280;23531;50.122;8.644;2023-03-04T00:42:21;101344.41;;;3.31;69.20
37694;BME280;23531;50.122;8.644;2023-03-04T00:44:22;101345.69;;;3.36;68.65
37694;BME280;23531;50.122;8.644;2023-03-04T00:46:24;101344.56;;;3.19;68.67
37694;BME280;23531;50.122;8.644;2023-03-04T00:48:25;101342.91;;;3.38;69.36
37694;BME280;23531;50.122;8.644;2023-03-04T00:50:26;101341.22;;;3.37;68.27
37694;BME280;23531;50.122;8.644;2023-03-04T00:52:28;101344.84;;;3.36;68.68
37694;BME280;23531;50.122;8.644;2023-03-04T00:54:30;101337.25;;;3.50;68.46
37694;BME280;23531;50.122;8.644;2023-03-04T00:56:32;101341.88;;;3.58;68.22
37694;BME280;23531;50.122;8.644;2023-03-04T00:58:33;101345.63;;;3.75;67.86
37694;BME280;23531;50.122;8.644;2023-03-04T01:00:34;101340.28;;;3.94;67.28
37694;BME280;23531;50.122;8.644;2023-03-04T01:02:36;101334.38;;;3.90;66.75
37694;BME280;23531;50.122;8.644;2023-03-04T01:04:37;101338.59;;;3.93;66.58
37694;BME280;23531;50.122;8.644;2023-03-04T01:06:38;101332.44;;;3.92;66.47
37694;BME280;23531;50.122;8.644;2023-03-04T01:08:39;101335.38;;;3.89;66.77
37694;BME280;23531;50.122;8.644;2023-03-04T01:10:42;101342.06;;;4.03;66.50
37694;BME280;23531;50.122;8.644;2023-03-04T01:12:43;101332.94;;;4.06;66.35
37694;BME280;23531;50.122;8.644;2023-03-04T01:14:44;101337.97;;;4.09;65.78
37694;BME280;23531;50.122;8.644;2023-03-04T01:16:46;101336.84;;;4.11;65.57
37694;BME280;23531;50.122;8.644;2023-03-04T01:18:47;101332.91;;;4.15;64.98
37694;BME280;23531;50.122;8.644;2023-03-04T01:20:48;101336.22;;;4.27;65.73
37694;BME280;23531;50.122;8.644;2023-03-04T01:22:50;101341.13;;;4.22;64.32
37694;BME280;23531;50.122;8.644;2023-03-04T01:24:51;101332.69;;;3.99;63.98
37694;BME280;23531;50.122;8.644;2023-03-04T01:26:53;101324.00;;;3.97;65.19
37694;BME280;23531;50.122;8.644;2023-03-04T01:28:55;101320.13;;;4.19;64.70
37694;BME280;23531;50.122;8.644;2023-03-04T01:30:56;101321.75;;;4.02;64.73
37694;BME280;23531;50.122;8.644;2023-03-04T01:32:57;101324.97;;;4.06;65.03
37694;BME280;23531;50.122;8.644;2023-03-04T01:34:58;101323.94;;;4.16;64.90
37694;BME280;23531;50.122;8.644;2023-03-04T01:37:00;101317.28;;;4.03;64.57
37694;BME280;23531;50.122;8.644;2023-03-04T01:39:01;101315.16;;;4.06;64.34
37694;BME280;23531;50.122;8.644;2023-03-04T01:41:02;101304.25;;;3.99;64.28
37694;BME280;23531;50.122;8.644;2023-03-04T01:43:05;101300.38;;;3.84;64.22
37694;BME280;23531;50.122;8.644;2023-03-04T01:45:09;101300.84;;;3.70;64.50
37694;BME280;23531;50.122;8.644;2023-03-04T01:47:11;101289.66;;;3.67;64.44
37694;BME280;23531;50.122;8.644;2023-03-04T01:49:13;101281.06;;;3.82;65.24
37694;BME280;23531;50.122;8.644;2023-03-04T01:51:16;101282.56;;;3.94;64.61
37694;BME280;23531;50.122;8.644;2023-03-04T01:53:19;101283.44;;;3.85;64.96
37694;BME280;23531;50.122;8.644;2023-03-04T01:55:21;101275.75;;;3.82;64.82
37694;BME280;23531;50.122;8.644;2023-03-04T01:57:24;101273.47;;;3.87;65.25
37694;BME280;23531;50.122;8.644;2023-03-04T01:59:29;101283.88;;;3.81;64.58
37694;BME280;23531;50.122;8.644;2023-03-04T02:01:31;101278.16;;;3.76;64.50
37694;BME280;23531;50.122;8.644;2023-03-04T02:03:32;101284.44;;;3.75;64.94
37694;BME280;23531;50.122;8.644;2023-03-04T02:05:34;101270.53;;;3.90;64.51
37694;BME280;23531;50.122;8.644;2023-03-04T02:07:37;101281.88;;;3.92;64.62
37694;BME280;23531;50.122;8.644;2023-03-04T02:09:38;101278.03;;;4.05;64.90
37694;BME280;23531;50.122;8.644;2023-03-04T02:11:39;101266.63;;;3.94;64.15
37694;BME280;23531;50.122;8.644;2023-03-04T02:13:41;101269.56;;;3.91;64.37
37694;BME280;23531;50.122;8.644;2023-03-04T02:15:44;101272.22;;;3.91;64.09
37694;BME280;23531;50.122;8.644;2023-03-04T02:17:45;101278.25;;;3.93;64.01
37694;BME280;23531;50.122;8.644;2023-03-04T02:19:48;101266.63;;;3.94;63.88
37694;BME280;23531;50.122;8.644;2023-03-04T02:21:50;101273.84;;;4.02;63.71
37694;BME280;23531;50.122;8.644;2023-03-04T02:23:54;101275.31;;;3.87;63.83
37694;BME280;23531;50.122;8.644;2023-03-04T02:26:12;101263.31;;;3.73;63.51
37694;BME280;23531;50.122;8.644;2023-03-04T02:28:14;101268.94;;;3.70;64.11
37694;BME280;23531;50.122;8.644;2023-03-04T02:30:16;101266.91;;;3.45;64.56
37694;BME280;23531;50.122;8.644;2023-03-04T02:32:18;101263.38;;;3.54;64.53
37694;BME280;23531;50.122;8.644;2023-03-04T02:34:20;101270.75;;;3.70;64.77
37694;BME280;23531;50.122;8.644;2023-03-04T02:36:22;101266.38;;;3.78;64.57
37694;BME280;23531;50.122;8.644;2023-03-04T02:38:23;101254.78;;;3.70;64.01
37694;BME280;23531;50.122;8.644;2023-03-04T02:40:26;101267.63;;;3.74;64.13
37694;BME280;23531;50.122;8.644;2023-03-04T02:42:29;101259.53;;;3.76;64.18
37694;BME280;23531;50.122;8.644;2023-03-04T02:44:31;101255.50;;;3.72;64.07
37694;BME280;23531;50.122;8.644;2023-03-04T02:46:33;101257.69;;;3.76;64.29
37694;BME280;23531;50.122;8.644;2023-03-04T02:48:34;101256.53;;;3.88;64.75
37694;BME280;23531;50.122;8.644;2023-03-04T02:50:38;101262.75;;;4.07;63.82
37694;BME280;23531;50.122;8.644;2023-03-04T02:52:40;101255.78;;;3.96;64.24
37694;BME280;23531;50.122;8.644;2023-03-04T02:54:42;101254.16;;;3.85;64.42
37694;BME280;23531;50.122;8.644;2023-03-04T02:56:43;101257.09;;;3.92;64.30
37694;BME280;23531;50.122;8.644;2023-03-04T02:58:46;101258.78;;;3.93;63.39
37694;BME280;23531;50.122;8.644;2023-03-04T03:00:47;101252.06;;;3.89;64.14
